Agate, CO

5:11 AM MST on December 19, 2014 (GMT -0700)
Agate | Change Station
CLOSE
Current Station
Personal Weather Station
Location: Agate, CO
Elevation: 5466 ft
Nearby Weather Stations

Elev 5466 ft 39.46 °N, 103.94 °W | Updated 7 minutes ago

Clear
Clear
19.6 °F
Feels Like 20 °F
N
0.0
Wind Variable Wind from South

Today
High -- | Low -- °F
--% Chance of Precip.
Yesterday
High -- | Low -- °F
Precip. -- in
7:11 AM 4:35 PM
Waning Crescent, 8% visible
Pressure 30.17 in
Visibility 10.0 miles
Clouds Clear
Windchill 20 °F
Dew Point 19 °F
Humidity 97%
Rainfall 0.00 in
Snow Depth Not available.
UV 0 out of 12
Pollen .10 out of 12
Air Quality Not available.
Flu Activity Not available.
METAR KLIC 191155Z AUTO 34003KT 10SM CLR M09/M12 A3007 RMK AO2 SLP217 T10941117 11050 21100 55004

More Conditions Fewer Conditions

Pressure 30.17 in
Visibility 10.0 miles
Clouds Clear
Windchill 20 °F
Dew Point 19 °F
Humidity 97%
Rainfall 0.00 in
Snow Depth Not available.
UV 0 out of 12
Pollen .10 out of 12
Air Quality Not available.
Flu Activity Not available.
METAR KLIC 191155Z AUTO 34003KT 10SM CLR M09/M12 A3007 RMK AO2 SLP217 T10941117 11050 21100 55004

More Conditions Fewer Conditions

10-Day Weather Forecast

Almanac

Astronomy

Dec. 19, 2014 Rise Set
Actual Time
Civil Twilight
Nautical Twilight
Astronomical Twilight
Moon
Length of Visible Light
Length of Day
Tomorrow will be .
, % of the Moon is Illuminated

Today's Extremes

State Highs State Lows

Community

WunderPhotos

Upload Photos

1,778,968 photos uploaded!

WunderBlogs® & News

Nearby

Air Quality

  Air Quality AQ Index Pollutant
Not available.

Snow Depth

Station Depth Elevation

Earthquake Activity

City Distance Mag. Time & Date
Minimum magnitude displayed is 2.5.

Coastal Water Temperatures

Place Temperature

Nearby Weather Stations